createdAt,value
2018-07-08T00:00:28.651Z,100716.84
2018-07-08T00:03:05.830Z,100716.22
2018-07-08T00:05:41.892Z,100714.94
2018-07-08T00:08:18.053Z,100719.64
2018-07-08T00:10:56.058Z,100715.74
2018-07-08T00:13:29.532Z,100716.08
2018-07-08T00:16:04.233Z,100718.67
2018-07-08T00:18:39.219Z,100721.17
2018-07-08T00:21:14.897Z,100719.75
2018-07-08T00:23:51.277Z,100725.33
2018-07-08T00:26:24.744Z,100720.38
2018-07-08T00:29:01.298Z,100723.35
2018-07-08T00:31:33.863Z,100716.92
2018-07-08T00:34:08.112Z,100716.44
2018-07-08T00:36:41.865Z,100710.95
2018-07-08T00:39:15.322Z,100708.89
2018-07-08T00:41:48.109Z,100714.77
2018-07-08T00:44:21.792Z,100711.28
2018-07-08T00:46:54.288Z,100719.86
2018-07-08T00:49:27.911Z,100719.89
2018-07-08T00:52:00.613Z,100724.47
2018-07-08T00:54:33.085Z,100728.86
2018-07-08T00:57:06.513Z,100727.78
2018-07-08T00:59:44.794Z,100730.95
2018-07-08T01:02:18.661Z,100729.73
2018-07-08T01:04:51.131Z,100733.20
2018-07-08T01:07:25.229Z,100735.38
2018-07-08T01:09:57.722Z,100734.50
2018-07-08T01:12:32.357Z,100732.18
2018-07-08T01:15:09.085Z,100729.06
2018-07-08T01:17:43.805Z,100732.47
2018-07-08T01:20:16.265Z,100736.80
2018-07-08T01:22:51.977Z,100737.85
2018-07-08T01:25:46.657Z,100737.69
2018-07-08T01:28:19.430Z,100742.37
2018-07-08T01:30:52.357Z,100740.12
2018-07-08T01:33:26.170Z,100745.66
2018-07-08T01:35:59.849Z,100746.17
2018-07-08T01:38:32.898Z,100749.22
2018-07-08T01:41:06.496Z,100757.18
2018-07-08T01:43:40.263Z,100754.98
2018-07-08T01:46:13.371Z,100753.16
2018-07-08T01:48:45.963Z,100759.64
2018-07-08T01:51:18.494Z,100758.47
2018-07-08T01:53:53.086Z,100755.20
2018-07-08T01:56:26.185Z,100754.51
2018-07-08T01:58:59.230Z,100758.23
2018-07-08T02:01:32.146Z,100765.47
2018-07-08T02:04:06.921Z,100763.17
2018-07-08T02:06:43.080Z,100763.61
2018-07-08T02:09:17.297Z,100765.20
2018-07-08T02:11:53.822Z,100767.23
2018-07-08T02:14:27.953Z,100769.63
2018-07-08T02:17:01.672Z,100778.41
2018-07-08T02:19:38.223Z,100774.05
2018-07-08T02:22:12.136Z,100772.64
2018-07-08T02:24:44.969Z,100775.80
2018-07-08T02:27:18.938Z,100773.08
2018-07-08T02:29:52.575Z,100776.52
2018-07-08T02:32:28.672Z,100782.91
2018-07-08T02:35:02.081Z,100780.09
2018-07-08T02:37:35.013Z,100784.92
2018-07-08T02:40:08.204Z,100787.38
2018-07-08T02:42:41.843Z,100790.16
2018-07-08T02:45:16.521Z,100795.41
2018-07-08T02:47:51.174Z,100796.36
2018-07-08T02:50:24.355Z,100798.75
2018-07-08T02:52:56.973Z,100799.14
2018-07-08T02:55:29.770Z,100803.94
2018-07-08T02:58:03.045Z,100803.89
2018-07-08T03:00:35.527Z,100799.65
2018-07-08T03:03:08.503Z,100795.59
2018-07-08T03:05:41.083Z,100793.64
2018-07-08T03:08:13.659Z,100789.28
2018-07-08T03:10:46.675Z,100789.33
2018-07-08T03:13:19.415Z,100790.78
2018-07-08T03:15:52.955Z,100794.50
2018-07-08T03:18:26.639Z,100793.04
2018-07-08T03:20:59.098Z,100791.62
2018-07-08T03:23:31.783Z,100795.38
2018-07-08T03:26:04.666Z,100796.24
2018-07-08T03:28:37.306Z,100794.80
2018-07-08T03:31:10.365Z,100791.53
2018-07-08T03:33:43.398Z,100796.73
2018-07-08T03:36:15.838Z,100800.02
2018-07-08T03:38:48.466Z,100799.25
2018-07-08T03:41:21.228Z,100794.69
2018-07-08T03:43:53.865Z,100796.72
2018-07-08T03:46:26.634Z,100798.02
2018-07-08T03:49:00.684Z,100803.91
2018-07-08T03:51:33.198Z,100806.55
2018-07-08T03:54:22.765Z,100800.23
2018-07-08T03:56:55.345Z,100804.74
2018-07-08T03:59:27.927Z,100812.38
2018-07-08T04:02:00.394Z,100810.00
2018-07-08T04:04:36.132Z,100810.02
2018-07-08T04:07:12.397Z,100814.96
2018-07-08T04:09:45.385Z,100813.59
2018-07-08T04:12:17.886Z,100812.05
2018-07-08T04:14:50.519Z,100811.11
2018-07-08T04:17:23.362Z,100811.69
2018-07-08T04:19:55.785Z,100818.42
2018-07-08T04:22:29.149Z,100816.78
2018-07-08T04:25:02.230Z,100818.89
2018-07-08T04:27:34.740Z,100823.31
2018-07-08T04:30:07.505Z,100825.19
2018-07-08T04:32:41.464Z,100830.03
2018-07-08T04:35:13.916Z,100832.46
2018-07-08T04:37:46.481Z,100835.59
2018-07-08T04:40:19.511Z,100834.78
2018-07-08T04:42:52.045Z,100838.31
2018-07-08T04:45:24.643Z,100845.91
2018-07-08T04:47:58.456Z,100845.78
2018-07-08T04:50:30.969Z,100849.09
2018-07-08T04:53:03.490Z,100852.77
2018-07-08T04:55:36.334Z,100853.43
2018-07-08T04:58:08.754Z,100854.09
2018-07-08T05:00:41.388Z,100859.16
2018-07-08T05:03:14.208Z,100855.60
2018-07-08T05:05:46.687Z,100861.23
2018-07-08T05:08:19.266Z,100859.80
2018-07-08T05:10:52.068Z,100862.75
2018-07-08T05:13:24.713Z,100865.55
2018-07-08T05:15:57.299Z,100863.27
2018-07-08T05:18:31.767Z,100863.92
2018-07-08T05:21:05.514Z,100862.10
2018-07-08T05:23:38.045Z,100857.22
2018-07-08T05:26:11.581Z,100861.06
2018-07-08T05:28:43.993Z,100860.23
2018-07-08T05:31:18.833Z,100861.67
2018-07-08T05:33:51.628Z,100865.03
2018-07-08T05:36:24.168Z,100866.19
2018-07-08T05:38:57.768Z,100862.92
2018-07-08T05:41:33.317Z,100872.62
2018-07-08T05:44:06.544Z,100877.15
2018-07-08T05:46:39.240Z,100875.44
2018-07-08T05:49:12.201Z,100880.38
2018-07-08T05:51:45.025Z,100868.28
2018-07-08T05:54:17.571Z,100874.91
2018-07-08T05:56:50.351Z,100869.83
2018-07-08T05:59:23.429Z,100867.53
2018-07-08T06:01:58.450Z,100867.78
2018-07-08T06:04:32.250Z,100866.47
2018-07-08T06:07:05.306Z,100864.75
2018-07-08T06:09:38.041Z,100862.37
2018-07-08T06:12:12.469Z,100858.43
2018-07-08T06:14:44.876Z,100859.58
2018-07-08T06:17:17.478Z,100851.94
2018-07-08T06:19:51.097Z,100853.42
2018-07-08T06:22:28.653Z,100855.27
2018-07-08T06:25:01.339Z,100852.95
2018-07-08T06:27:35.268Z,100853.95
2018-07-08T06:30:07.984Z,100857.23
2018-07-08T06:32:40.607Z,100856.75
2018-07-08T06:35:13.531Z,100860.26
2018-07-08T06:37:46.716Z,100857.89
2018-07-08T06:40:20.390Z,100859.75
2018-07-08T06:42:53.474Z,100859.16
2018-07-08T06:45:25.950Z,100860.47
2018-07-08T06:47:59.436Z,100865.47
2018-07-08T06:50:33.149Z,100869.89
2018-07-08T06:53:07.566Z,100867.67
2018-07-08T06:55:40.685Z,100861.66
2018-07-08T06:58:15.433Z,100857.48
2018-07-08T07:00:48.022Z,100862.98
2018-07-08T07:03:20.758Z,100859.12
2018-07-08T07:05:56.238Z,100859.75
2018-07-08T07:08:39.693Z,100864.37
2018-07-08T07:11:14.488Z,100864.25
2018-07-08T07:13:51.556Z,100868.75
2018-07-08T07:16:25.530Z,100860.93
2018-07-08T07:18:59.171Z,100870.07
2018-07-08T07:21:38.851Z,100868.00
2018-07-08T07:24:18.177Z,100866.39
2018-07-08T07:26:53.371Z,100876.00
2018-07-08T07:29:26.244Z,100868.17
2018-07-08T07:32:03.473Z,100869.85
2018-07-08T07:34:37.939Z,100869.91
2018-07-08T07:37:21.660Z,100864.40
2018-07-08T07:40:26.677Z,100864.30
2018-07-08T07:43:01.468Z,100865.16
2018-07-08T07:45:37.881Z,100868.13
2018-07-08T07:48:22.181Z,100871.02
2018-07-08T07:50:55.419Z,100869.81
2018-07-08T07:53:33.212Z,100874.20
2018-07-08T07:56:08.592Z,100869.75
2018-07-08T07:58:42.884Z,100864.62
2018-07-08T08:01:17.973Z,100862.23
2018-07-08T08:03:50.646Z,100856.56
2018-07-08T08:06:23.795Z,100858.08
2018-07-08T08:08:57.595Z,100862.56
2018-07-08T08:11:32.657Z,100862.05
2018-07-08T08:14:08.302Z,100859.89
2018-07-08T08:16:42.644Z,100861.49
2018-07-08T08:19:21.361Z,100860.16
2018-07-08T08:21:55.669Z,100856.46
2018-07-08T08:24:33.470Z,100860.63
2018-07-08T08:27:13.533Z,100861.32
2018-07-08T08:29:58.799Z,100866.02
2018-07-08T08:32:40.649Z,100862.61
2018-07-08T08:35:22.095Z,100855.95
2018-07-08T08:37:57.357Z,100861.83
2018-07-08T08:40:32.929Z,100864.30
2018-07-08T08:43:16.248Z,100858.87
2018-07-08T08:45:49.572Z,100860.33
2018-07-08T08:48:25.196Z,100854.98
2018-07-08T08:51:02.593Z,100859.12
2018-07-08T08:53:39.745Z,100859.95
2018-07-08T08:56:14.162Z,100857.23
2018-07-08T08:58:54.802Z,100859.27
2018-07-08T09:01:40.895Z,100856.58
2018-07-08T09:04:17.694Z,100860.19
2018-07-08T09:06:52.789Z,100860.34
2018-07-08T09:09:26.665Z,100867.49
2018-07-08T09:12:02.429Z,100861.89
2018-07-08T09:14:43.941Z,100864.39
2018-07-08T09:17:18.369Z,100864.89
2018-07-08T09:19:52.760Z,100859.83
2018-07-08T09:22:31.625Z,100855.97
2018-07-08T09:25:09.750Z,100848.75
2018-07-08T09:27:44.990Z,100859.08
2018-07-08T09:30:19.966Z,100853.31
2018-07-08T09:32:53.035Z,100854.79
2018-07-08T09:35:27.722Z,100856.02
2018-07-08T09:38:05.570Z,100853.61
2018-07-08T09:40:43.646Z,100857.59
2018-07-08T09:43:19.663Z,100855.39
2018-07-08T09:45:56.495Z,100853.86
2018-07-08T09:48:34.410Z,100855.34
2018-07-08T09:51:07.884Z,100855.56
2018-07-08T09:53:44.138Z,100850.89
2018-07-08T09:56:23.365Z,100851.23
2018-07-08T09:58:59.234Z,100848.84
2018-07-08T10:01:40.111Z,100851.23
2018-07-08T10:04:16.092Z,100849.84
2018-07-08T10:06:55.596Z,100855.82
2018-07-08T10:09:39.479Z,100854.28
2018-07-08T10:12:23.792Z,100844.64
2018-07-08T10:15:00.598Z,100846.75
2018-07-08T10:17:41.691Z,100840.27
2018-07-08T10:20:17.674Z,100850.00
2018-07-08T10:22:55.705Z,100836.28
2018-07-08T10:25:40.250Z,100826.17
2018-07-08T10:28:21.585Z,100826.22
2018-07-08T10:31:12.854Z,100842.68
2018-07-08T10:33:58.759Z,100828.02
2018-07-08T10:36:43.236Z,100840.57
2018-07-08T10:39:21.230Z,100834.45
2018-07-08T10:42:01.491Z,100830.47
2018-07-08T10:44:44.061Z,100830.73
2018-07-08T10:47:28.810Z,100844.58
2018-07-08T10:50:15.834Z,100838.97
2018-07-08T10:52:53.174Z,100842.55
2018-07-08T10:55:28.412Z,100845.41
2018-07-08T10:58:06.682Z,100838.61
2018-07-08T11:00:44.290Z,100839.22
2018-07-08T11:03:21.473Z,100830.09
2018-07-08T11:06:18.652Z,100832.80
2018-07-08T11:09:09.566Z,100832.20
2018-07-08T11:11:55.148Z,100839.33
2018-07-08T11:14:53.210Z,100830.76
2018-07-08T11:17:49.435Z,100830.86
2018-07-08T11:20:30.190Z,100821.16
2018-07-08T11:23:35.118Z,100821.68
2018-07-08T11:26:18.510Z,100820.31
2018-07-08T11:29:16.685Z,100813.34
2018-07-08T11:31:54.277Z,100802.13
2018-07-08T11:34:43.177Z,100799.36
2018-07-08T11:37:29.343Z,100801.41
2018-07-08T11:40:10.128Z,100797.53
2018-07-08T11:42:46.718Z,100800.13
2018-07-08T11:45:33.630Z,100801.77
2018-07-08T11:48:17.599Z,100803.72
2018-07-08T11:50:58.089Z,100800.29
2018-07-08T11:53:33.317Z,100799.28
2018-07-08T11:56:09.547Z,100801.89
2018-07-08T11:58:54.963Z,100800.06
2018-07-08T12:01:30.247Z,100787.02
2018-07-08T12:04:11.095Z,100784.56
2018-07-08T12:06:53.298Z,100788.27
2018-07-08T12:09:45.690Z,100779.98
2018-07-08T12:12:36.884Z,100786.28
2018-07-08T12:15:20.622Z,100788.77
2018-07-08T12:17:57.990Z,100780.70
2018-07-08T12:20:41.349Z,100780.47
2018-07-08T12:23:15.151Z,100781.02
2018-07-08T12:25:50.744Z,100780.37
2018-07-08T12:28:28.173Z,100781.58
2018-07-08T12:31:01.400Z,100786.96
2018-07-08T12:33:47.250Z,100776.65
2018-07-08T12:36:21.177Z,100783.43
2018-07-08T12:38:56.755Z,100771.82
2018-07-08T12:41:38.336Z,100766.17
2018-07-08T12:44:19.831Z,100772.61
2018-07-08T12:47:01.378Z,100767.66
2018-07-08T12:49:47.395Z,100761.77
2018-07-08T12:52:22.513Z,100754.57
2018-07-08T12:55:00.436Z,100759.13
2018-07-08T12:57:37.263Z,100748.48
2018-07-08T13:00:17.012Z,100750.53
2018-07-08T13:03:01.563Z,100747.71
2018-07-08T13:05:43.821Z,100746.34
2018-07-08T13:08:22.834Z,100753.07
2018-07-08T13:11:01.873Z,100750.36
2018-07-08T13:13:39.538Z,100754.34
2018-07-08T13:16:15.006Z,100749.52
2018-07-08T13:18:50.329Z,100752.34
2018-07-08T13:21:26.165Z,100747.98
2018-07-08T13:24:02.452Z,100753.97
2018-07-08T13:26:42.515Z,100749.30
2018-07-08T13:29:20.381Z,100747.49
2018-07-08T13:32:00.660Z,100740.20
2018-07-08T13:34:38.485Z,100740.80
2018-07-08T13:37:14.508Z,100739.48
2018-07-08T13:39:48.754Z,100737.09
2018-07-08T13:42:31.798Z,100749.63
2018-07-08T13:45:12.519Z,100736.82
2018-07-08T13:47:48.267Z,100736.47
2018-07-08T13:50:21.826Z,100734.73
2018-07-08T13:53:02.235Z,100735.17
2018-07-08T13:55:37.360Z,100738.69
2018-07-08T13:58:13.754Z,100726.36
2018-07-08T14:00:53.133Z,100728.69
2018-07-08T14:03:30.331Z,100729.55
2018-07-08T14:06:10.802Z,100728.95
2018-07-08T14:08:49.631Z,100725.58
2018-07-08T14:11:25.182Z,100736.87
2018-07-08T14:14:01.506Z,100723.55
2018-07-08T14:16:35.865Z,100722.38
2018-07-08T14:19:13.570Z,100724.09
2018-07-08T14:21:50.855Z,100720.27
2018-07-08T14:24:25.281Z,100721.24
2018-07-08T14:26:58.925Z,100716.59
2018-07-08T14:29:35.274Z,100713.04
2018-07-08T14:32:10.231Z,100706.98
2018-07-08T14:34:44.352Z,100706.92
2018-07-08T14:37:19.468Z,100700.50
2018-07-08T14:39:56.065Z,100712.42
2018-07-08T14:42:33.009Z,100709.52
2018-07-08T14:45:10.647Z,100705.83
2018-07-08T14:47:47.636Z,100699.72
2018-07-08T14:50:20.125Z,100693.88
2018-07-08T14:52:54.178Z,100692.84
2018-07-08T14:55:30.947Z,100702.64
2018-07-08T14:58:05.802Z,100698.84
2018-07-08T15:00:44.006Z,100695.92
2018-07-08T15:03:19.527Z,100693.38
2018-07-08T15:05:53.389Z,100688.19
2018-07-08T15:08:27.612Z,100686.22
2018-07-08T15:11:03.923Z,100685.73
2018-07-08T15:13:39.480Z,100687.34
2018-07-08T15:16:12.786Z,100687.87
2018-07-08T15:18:51.730Z,100683.52
2018-07-08T15:21:27.281Z,100682.95
2018-07-08T15:24:01.451Z,100680.56
2018-07-08T15:26:40.010Z,100676.12
2018-07-08T15:29:21.790Z,100673.98
2018-07-08T15:31:59.451Z,100675.02
2018-07-08T15:34:36.672Z,100667.77
2018-07-08T15:37:14.169Z,100673.36
2018-07-08T15:39:49.077Z,100671.70
2018-07-08T15:42:23.252Z,100671.62
2018-07-08T15:45:00.357Z,100667.27
2018-07-08T15:47:41.050Z,100665.55
2018-07-08T15:50:22.508Z,100660.48
2018-07-08T15:52:59.915Z,100658.61
2018-07-08T15:55:42.495Z,100661.89
2018-07-08T15:58:19.373Z,100669.28
2018-07-08T16:00:55.867Z,100675.20
2018-07-08T16:03:31.010Z,100678.27
2018-07-08T16:06:11.267Z,100670.05
2018-07-08T16:08:52.987Z,100666.77
2018-07-08T16:11:30.554Z,100664.32
2018-07-08T16:14:08.541Z,100660.70
2018-07-08T16:16:45.530Z,100653.38
2018-07-08T16:19:23.449Z,100656.68
2018-07-08T16:22:00.972Z,100647.11
2018-07-08T16:24:37.119Z,100648.53
2018-07-08T16:27:14.505Z,100651.58
2018-07-08T16:29:50.692Z,100647.03
2018-07-08T16:32:27.630Z,100643.66
2018-07-08T16:35:06.208Z,100633.84
2018-07-08T16:37:56.855Z,100644.72
2018-07-08T16:40:32.688Z,100643.71
2018-07-08T16:43:14.118Z,100633.41
2018-07-08T16:45:51.348Z,100650.63
2018-07-08T16:48:30.409Z,100649.18
2018-07-08T16:51:09.503Z,100648.03
2018-07-08T16:53:44.838Z,100644.46
2018-07-08T16:56:25.813Z,100645.39
2018-07-08T16:59:06.438Z,100650.71
2018-07-08T17:01:42.632Z,100642.48
2018-07-08T17:04:21.585Z,100641.88
2018-07-08T17:07:07.834Z,100646.44
2018-07-08T17:09:52.587Z,100648.08
2018-07-08T17:12:32.331Z,100649.81
2018-07-08T17:15:07.070Z,100641.50
2018-07-08T17:17:42.825Z,100642.70
2018-07-08T17:20:21.862Z,100635.73
2018-07-08T17:22:59.203Z,100639.02
2018-07-08T17:25:33.999Z,100643.13
2018-07-08T17:28:22.318Z,100634.38
2018-07-08T17:30:57.631Z,100633.22
2018-07-08T17:33:35.563Z,100630.61
2018-07-08T17:36:10.820Z,100634.14
2018-07-08T17:38:46.556Z,100635.01
2018-07-08T17:41:21.572Z,100635.42
2018-07-08T17:43:56.450Z,100631.89
2018-07-08T17:46:31.477Z,100631.73
2018-07-08T17:49:09.313Z,100632.66
2018-07-08T17:51:51.228Z,100631.95
2018-07-08T17:54:24.549Z,100635.27
2018-07-08T17:57:00.657Z,100638.20
2018-07-08T17:59:36.753Z,100639.86
2018-07-08T18:02:21.792Z,100636.58
2018-07-08T18:04:57.997Z,100635.61
2018-07-08T18:07:41.402Z,100636.63
2018-07-08T18:10:16.890Z,100637.67
2018-07-08T18:12:57.492Z,100634.52
2018-07-08T18:15:41.561Z,100634.62
2018-07-08T18:18:15.063Z,100634.77
2018-07-08T18:20:53.584Z,100636.96
2018-07-08T18:23:32.527Z,100642.67
2018-07-08T18:26:20.574Z,100641.16
2018-07-08T18:29:03.667Z,100645.52
2018-07-08T18:31:40.427Z,100638.67
2018-07-08T18:34:15.769Z,100638.45
2018-07-08T18:36:53.911Z,100631.98
2018-07-08T18:39:31.650Z,100636.48
2018-07-08T18:42:12.576Z,100638.38
2018-07-08T18:44:48.373Z,100636.81
2018-07-08T18:47:39.974Z,100633.95
2018-07-08T18:50:17.788Z,100633.27
2018-07-08T18:52:52.634Z,100630.13
2018-07-08T18:55:27.837Z,100627.42
2018-07-08T18:58:05.460Z,100632.72
2018-07-08T19:00:39.628Z,100629.92
2018-07-08T19:03:18.344Z,100633.42
2018-07-08T19:05:53.161Z,100636.67
2018-07-08T19:08:28.279Z,100634.02
2018-07-08T19:11:18.769Z,100640.48
2018-07-08T19:13:52.356Z,100642.81
2018-07-08T19:16:26.474Z,100641.66
2018-07-08T19:19:03.213Z,100644.89
2018-07-08T19:21:44.576Z,100645.14
2018-07-08T19:24:24.769Z,100646.45
2018-07-08T19:27:05.656Z,100648.05
2018-07-08T19:29:44.169Z,100648.72
2018-07-08T19:32:18.777Z,100648.97
2018-07-08T19:34:55.585Z,100655.30
2018-07-08T19:37:30.970Z,100654.25
2018-07-08T19:40:06.953Z,100652.52
2018-07-08T19:42:42.175Z,100652.91
2018-07-08T19:45:22.034Z,100656.05
2018-07-08T19:48:05.307Z,100661.49
2018-07-08T19:50:43.494Z,100663.15
2018-07-08T19:53:17.328Z,100659.66
2018-07-08T19:55:53.028Z,100667.00
2018-07-08T19:58:28.355Z,100677.71
2018-07-08T20:01:03.218Z,100676.05
2018-07-08T20:03:44.265Z,100680.66
2018-07-08T20:06:36.749Z,100689.64
2018-07-08T20:09:23.684Z,100686.31
2018-07-08T20:12:02.569Z,100688.56
2018-07-08T20:14:44.993Z,100687.03
2018-07-08T20:17:31.074Z,100686.05
2018-07-08T20:20:10.731Z,100688.19
2018-07-08T20:22:44.573Z,100691.56
2018-07-08T20:25:20.814Z,100692.57
2018-07-08T20:27:57.864Z,100694.84
2018-07-08T20:30:36.720Z,100697.58
2018-07-08T20:33:11.510Z,100698.39
2018-07-08T20:35:44.908Z,100696.70
2018-07-08T20:38:23.003Z,100694.38
2018-07-08T20:41:04.073Z,100698.67
2018-07-08T20:43:51.570Z,100699.11
2018-07-08T20:46:42.592Z,100702.22
2018-07-08T20:49:42.545Z,100702.56
2018-07-08T20:52:22.759Z,100705.05
2018-07-08T20:55:05.178Z,100700.63
2018-07-08T20:57:48.237Z,100701.86
2018-07-08T21:00:21.701Z,100702.96
2018-07-08T21:02:55.853Z,100703.08
2018-07-08T21:05:33.827Z,100698.88
2018-07-08T21:08:11.861Z,100701.58
2018-07-08T21:10:51.590Z,100702.06
2018-07-08T21:13:31.485Z,100710.19
2018-07-08T21:16:07.653Z,100710.14
2018-07-08T21:18:42.687Z,100709.78
2018-07-08T21:21:18.931Z,100711.69
2018-07-08T21:23:52.600Z,100713.17
2018-07-08T21:26:27.664Z,100713.72
2018-07-08T21:29:02.760Z,100718.91
2018-07-08T21:31:39.002Z,100721.86
2018-07-08T21:34:13.658Z,100719.33
2018-07-08T21:36:47.175Z,100722.00
2018-07-08T21:39:22.313Z,100724.94
2018-07-08T21:41:56.573Z,100723.47
2018-07-08T21:44:34.988Z,100722.55
2018-07-08T21:47:11.487Z,100723.47
2018-07-08T21:49:46.028Z,100723.23
2018-07-08T21:52:20.363Z,100718.75
2018-07-08T21:54:53.499Z,100720.73
2018-07-08T21:57:28.572Z,100722.12
2018-07-08T22:00:06.914Z,100720.80
2018-07-08T22:02:58.429Z,100724.73
2018-07-08T22:05:31.836Z,100721.53
2018-07-08T22:08:07.320Z,100728.67
2018-07-08T22:10:52.079Z,100722.42
2018-07-08T22:13:26.733Z,100730.89
2018-07-08T22:16:04.282Z,100731.13
2018-07-08T22:18:41.292Z,100727.99
2018-07-08T22:21:30.687Z,100728.66
2018-07-08T22:24:26.314Z,100734.45
2018-07-08T22:27:00.303Z,100736.85
2018-07-08T22:29:36.450Z,100738.87
2018-07-08T22:32:11.645Z,100735.33
2018-07-08T22:34:45.458Z,100738.86
2018-07-08T22:37:21.906Z,100738.25
2018-07-08T22:39:58.410Z,100736.30
2018-07-08T22:42:32.604Z,100737.29
2018-07-08T22:45:13.157Z,100736.30
2018-07-08T22:47:46.489Z,100734.03
2018-07-08T22:50:19.039Z,100728.92
2018-07-08T22:52:56.371Z,100723.18
2018-07-08T22:55:30.975Z,100718.52
2018-07-08T22:58:06.513Z,100719.11
2018-07-08T23:01:02.638Z,100723.38
2018-07-08T23:03:58.045Z,100729.31
2018-07-08T23:06:32.996Z,100729.59
2018-07-08T23:09:09.657Z,100730.20
2018-07-08T23:11:43.141Z,100732.59
2018-07-08T23:14:16.290Z,100734.05
2018-07-08T23:16:56.582Z,100735.11
2018-07-08T23:19:29.929Z,100733.97
2018-07-08T23:22:03.777Z,100729.39
2018-07-08T23:24:38.841Z,100724.69
2018-07-08T23:27:14.271Z,100722.70
2018-07-08T23:29:48.969Z,100725.97
2018-07-08T23:32:25.685Z,100726.28
2018-07-08T23:34:59.609Z,100727.30
2018-07-08T23:37:42.405Z,100729.56
2018-07-08T23:40:18.669Z,100735.87
2018-07-08T23:42:51.569Z,100733.47
2018-07-08T23:45:25.154Z,100731.90
2018-07-08T23:47:57.796Z,100733.23
2018-07-08T23:50:32.110Z,100728.80
2018-07-08T23:53:04.786Z,100727.25
2018-07-08T23:55:37.297Z,100727.77
2018-07-08T23:58:10.034Z,100730.06
